sensor_id;sensor_type;location;lat;lon;timestamp;pressure;altitude;pressure_sealevel;temperature;humidity
48668;BME280;34453;52.198;5.004;2023-04-03T00:01:14;103227.50;;;4.06;100.00
48668;BME280;34453;52.198;5.004;2023-04-03T00:03:40;103237.19;;;3.99;100.00
48668;BME280;34453;52.198;5.004;2023-04-03T00:06:09;103242.44;;;3.96;100.00
48668;BME280;34453;52.198;5.004;2023-04-03T00:08:36;103239.66;;;4.04;100.00
48668;BME280;34453;52.198;5.004;2023-04-03T00:11:03;103238.09;;;3.98;100.00
48668;BME280;34453;52.198;5.004;2023-04-03T00:13:29;103235.56;;;3.95;100.00
48668;BME280;34453;52.198;5.004;2023-04-03T00:15:55;103232.94;;;3.97;100.00
48668;BME280;34453;52.198;5.004;2023-04-03T00:18:21;103239.97;;;3.91;100.00
48668;BME280;34453;52.198;5.004;2023-04-03T00:20:47;103239.03;;;3.94;100.00
48668;BME280;34453;52.198;5.004;2023-04-03T00:23:13;103235.78;;;3.86;100.00
48668;BME280;34453;52.198;5.004;2023-04-03T00:25:38;103240.81;;;3.92;100.00
48668;BME280;34453;52.198;5.004;2023-04-03T00:28:04;103246.94;;;3.89;100.00
48668;BME280;34453;52.198;5.004;2023-04-03T00:30:30;103241.66;;;3.92;100.00
48668;BME280;34453;52.198;5.004;2023-04-03T00:32:56;103240.00;;;3.90;100.00
48668;BME280;34453;52.198;5.004;2023-04-03T00:35:22;103242.59;;;3.90;100.00
48668;BME280;34453;52.198;5.004;2023-04-03T00:37:51;103240.19;;;3.82;100.00
48668;BME280;34453;52.198;5.004;2023-04-03T00:40:17;103239.31;;;3.83;100.00
48668;BME280;34453;52.198;5.004;2023-04-03T00:42:43;103241.25;;;3.75;100.00
48668;BME280;34453;52.198;5.004;2023-04-03T00:47:41;103238.53;;;3.80;100.00
48668;BME280;34453;52.198;5.004;2023-04-03T00:50:07;103243.81;;;3.75;100.00
48668;BME280;34453;52.198;5.004;2023-04-03T00:52:33;103244.88;;;3.68;100.00
48668;BME280;34453;52.198;5.004;2023-04-03T00:55:02;103248.25;;;3.71;100.00
48668;BME280;34453;52.198;5.004;2023-04-03T00:57:30;103251.69;;;3.72;100.00
48668;BME280;34453;52.198;5.004;2023-04-03T01:00:03;103248.31;;;3.68;100.00
48668;BME280;34453;52.198;5.004;2023-04-03T01:02:29;103262.16;;;3.67;100.00
48668;BME280;34453;52.198;5.004;2023-04-03T01:04:55;103262.16;;;3.67;100.00
48668;BME280;34453;52.198;5.004;2023-04-03T01:07:29;103260.44;;;3.66;100.00
48668;BME280;34453;52.198;5.004;2023-04-03T01:10:00;103258.91;;;3.58;100.00
48668;BME280;34453;52.198;5.004;2023-04-03T01:12:27;103258.88;;;3.59;100.00
48668;BME280;34453;52.198;5.004;2023-04-03T01:14:55;103260.44;;;3.66;100.00
48668;BME280;34453;52.198;5.004;2023-04-03T01:17:26;103264.88;;;3.61;100.00
48668;BME280;34453;52.198;5.004;2023-04-03T01:20:20;103263.19;;;3.60;100.00
48668;BME280;34453;52.198;5.004;2023-04-03T01:25:21;103263.19;;;3.60;100.00
48668;BME280;34453;52.198;5.004;2023-04-03T01:27:46;103254.75;;;3.52;100.00
48668;BME280;34453;52.198;5.004;2023-04-03T01:30:14;103257.34;;;3.52;100.00
48668;BME280;34453;52.198;5.004;2023-04-03T01:32:41;103261.63;;;3.53;100.00
48668;BME280;34453;52.198;5.004;2023-04-03T01:35:08;103257.13;;;3.60;100.00
48668;BME280;34453;52.198;5.004;2023-04-03T01:37:33;103256.63;;;3.45;100.00
48668;BME280;34453;52.198;5.004;2023-04-03T01:39:59;103257.47;;;3.46;100.00
48668;BME280;34453;52.198;5.004;2023-04-03T01:42:24;103264.25;;;3.51;100.00
48668;BME280;34453;52.198;5.004;2023-04-03T01:44:50;103263.59;;;3.42;100.00
48668;BME280;34453;52.198;5.004;2023-04-03T01:47:15;103259.34;;;3.39;100.00
48668;BME280;34453;52.198;5.004;2023-04-03T01:49:40;103260.97;;;3.45;100.00
48668;BME280;34453;52.198;5.004;2023-04-03T01:52:06;103260.09;;;3.44;100.00
48668;BME280;34453;52.198;5.004;2023-04-03T01:54:31;103254.06;;;3.44;100.00
48668;BME280;34453;52.198;5.004;2023-04-03T01:56:57;103263.69;;;3.39;100.00
48668;BME280;34453;52.198;5.004;2023-04-03T01:59:23;103266.19;;;3.42;100.00
48668;BME280;34453;52.198;5.004;2023-04-03T02:01:48;103268.78;;;3.42;100.00
48668;BME280;34453;52.198;5.004;2023-04-03T02:04:14;103265.25;;;3.46;100.00
48668;BME280;34453;52.198;5.004;2023-04-03T02:06:40;103268.66;;;3.46;100.00
48668;BME280;34453;52.198;5.004;2023-04-03T02:09:05;103270.59;;;3.38;100.00
48668;BME280;34453;52.198;5.004;2023-04-03T02:11:31;103267.19;;;3.36;100.00
48668;BME280;34453;52.198;5.004;2023-04-03T02:13:56;103269.91;;;3.31;100.00
48668;BME280;34453;52.198;5.004;2023-04-03T02:16:22;103284.53;;;3.32;100.00
48668;BME280;34453;52.198;5.004;2023-04-03T02:18:47;103276.84;;;3.29;100.00
48668;BME280;34453;52.198;5.004;2023-04-03T02:21:12;103278.59;;;3.27;100.00
48668;BME280;34453;52.198;5.004;2023-04-03T02:23:38;103282.84;;;3.30;100.00
48668;BME280;34453;52.198;5.004;2023-04-03T02:26:14;103277.84;;;3.22;100.00
48668;BME280;34453;52.198;5.004;2023-04-03T02:28:40;103270.03;;;3.25;100.00
48668;BME280;34453;52.198;5.004;2023-04-03T02:31:06;103271.91;;;3.17;100.00
48668;BME280;34453;52.198;5.004;2023-04-03T02:33:33;103274.50;;;3.17;100.00
48668;BME280;34453;52.198;5.004;2023-04-03T02:35:59;103276.06;;;3.24;100.00
48668;BME280;34453;52.198;5.004;2023-04-03T02:38:25;103288.28;;;3.18;100.00
48668;BME280;34453;52.198;5.004;2023-04-03T02:40:51;103289.28;;;3.12;100.00
48668;BME280;34453;52.198;5.004;2023-04-03T02:43:17;103284.88;;;3.16;100.00
48668;BME280;34453;52.198;5.004;2023-04-03T02:45:42;103280.53;;;3.18;100.00
48668;BME280;34453;52.198;5.004;2023-04-03T02:48:08;103285.81;;;3.13;100.00
48668;BME280;34453;52.198;5.004;2023-04-03T02:50:33;103280.81;;;3.04;100.00
48668;BME280;34453;52.198;5.004;2023-04-03T02:52:59;103297.19;;;3.04;100.00
48668;BME280;34453;52.198;5.004;2023-04-03T02:55:24;103289.41;;;3.06;100.00
48668;BME280;34453;52.198;5.004;2023-04-03T02:57:50;103303.28;;;3.02;100.00
48668;BME280;34453;52.198;5.004;2023-04-03T03:00:15;103309.28;;;3.04;100.00
48668;BME280;34453;52.198;5.004;2023-04-03T03:02:41;103305.91;;;3.00;100.00
48668;BME280;34453;52.198;5.004;2023-04-03T03:05:08;103307.63;;;3.00;100.00
48668;BME280;34453;52.198;5.004;2023-04-03T03:07:34;103312.84;;;2.98;100.00
48668;BME280;34453;52.198;5.004;2023-04-03T03:09:59;103311.13;;;2.99;100.00
48668;BME280;34453;52.198;5.004;2023-04-03T03:12:25;103318.06;;;2.97;100.00
48668;BME280;34453;52.198;5.004;2023-04-03T03:14:50;103317.13;;;2.99;100.00
48668;BME280;34453;52.198;5.004;2023-04-03T03:17:16;103316.31;;;2.97;100.00
48668;BME280;34453;52.198;5.004;2023-04-03T03:19:42;103309.47;;;2.95;100.00
48668;BME280;34453;52.198;5.004;2023-04-03T03:22:07;103320.75;;;2.90;100.00
48668;BME280;34453;52.198;5.004;2023-04-03T03:24:33;103323.41;;;2.87;100.00
48668;BME280;34453;52.198;5.004;2023-04-03T03:26:58;103320.84;;;2.86;100.00
48668;BME280;34453;52.198;5.004;2023-04-03T03:29:24;103317.41;;;2.85;100.00
48668;BME280;34453;52.198;5.004;2023-04-03T03:31:49;103322.59;;;2.85;100.00
48668;BME280;34453;52.198;5.004;2023-04-03T03:34:15;103321.69;;;2.86;100.00
48668;BME280;34453;52.198;5.004;2023-04-03T03:36:40;103318.34;;;2.81;100.00
48668;BME280;34453;52.198;5.004;2023-04-03T03:39:06;103316.66;;;2.80;100.00
48668;BME280;34453;52.198;5.004;2023-04-03T03:41:31;103318.38;;;2.80;100.00
48668;BME280;34453;52.198;5.004;2023-04-03T03:43:57;103326.97;;;2.82;100.00
48668;BME280;34453;52.198;5.004;2023-04-03T03:46:23;103317.59;;;2.76;100.00
48668;BME280;34453;52.198;5.004;2023-04-03T03:48:48;103323.53;;;2.80;100.00
48668;BME280;34453;52.198;5.004;2023-04-03T03:51:14;103317.47;;;2.82;100.00
48668;BME280;34453;52.198;5.004;2023-04-03T03:53:39;103321.16;;;2.69;100.00
48668;BME280;34453;52.198;5.004;2023-04-03T03:56:05;103324.47;;;2.76;100.00
48668;BME280;34453;52.198;5.004;2023-04-03T03:58:31;103325.38;;;2.76;100.00
48668;BME280;34453;52.198;5.004;2023-04-03T04:01:00;103330.53;;;2.76;100.00
48668;BME280;34453;52.198;5.004;2023-04-03T04:03:26;103326.28;;;2.72;100.00
48668;BME280;34453;52.198;5.004;2023-04-03T04:05:51;103314.19;;;2.74;100.00
48668;BME280;34453;52.198;5.004;2023-04-03T04:08:17;103324.63;;;2.69;100.00
48668;BME280;34453;52.198;5.004;2023-04-03T04:10:42;103329.75;;;2.71;100.00
48668;BME280;34453;52.198;5.004;2023-04-03T04:13:07;103328.91;;;2.70;100.00
48668;BME280;34453;52.198;5.004;2023-04-03T04:15:33;103336.66;;;2.70;100.00
48668;BME280;34453;52.198;5.004;2023-04-03T04:17:59;103337.41;;;2.76;100.00
48668;BME280;34453;52.198;5.004;2023-04-03T04:20:24;103329.75;;;2.71;100.00
48668;BME280;34453;52.198;5.004;2023-04-03T04:22:49;103341.13;;;2.62;100.00
48668;BME280;34453;52.198;5.004;2023-04-03T04:25:15;103335.00;;;2.66;100.00
48668;BME280;34453;52.198;5.004;2023-04-03T04:27:41;103340.16;;;2.66;100.00
48668;BME280;34453;52.198;5.004;2023-04-03T04:30:06;103333.34;;;2.64;100.00
48668;BME280;34453;52.198;5.004;2023-04-03T04:32:32;103337.66;;;2.63;100.00
48668;BME280;34453;52.198;5.004;2023-04-03T04:34:58;103332.41;;;2.66;100.00
48668;BME280;34453;52.198;5.004;2023-04-03T04:37:23;103327.22;;;2.68;100.00
48668;BME280;34453;52.198;5.004;2023-04-03T04:39:48;103335.97;;;2.62;100.00
48668;BME280;34453;52.198;5.004;2023-04-03T04:42:14;103338.56;;;2.61;100.00
48668;BME280;34453;52.198;5.004;2023-04-03T04:44:40;103336.84;;;2.60;100.00
48668;BME280;34453;52.198;5.004;2023-04-03T04:47:05;103328.06;;;2.70;100.00
48668;BME280;34453;52.198;5.004;2023-04-03T04:49:31;103337.75;;;2.59;100.00
48668;BME280;34453;52.198;5.004;2023-04-03T04:51:56;103342.91;;;2.59;100.00
48668;BME280;34453;52.198;5.004;2023-04-03T04:54:22;103338.59;;;2.58;100.00
48668;BME280;34453;52.198;5.004;2023-04-03T04:56:47;103337.00;;;2.54;100.00
48668;BME280;34453;52.198;5.004;2023-04-03T04:59:13;103333.56;;;2.52;100.00
48668;BME280;34453;52.198;5.004;2023-04-03T05:01:38;103342.16;;;2.54;100.00
48668;BME280;34453;52.198;5.004;2023-04-03T05:04:04;103345.66;;;2.49;100.00
48668;BME280;34453;52.198;5.004;2023-04-03T05:06:29;103349.00;;;2.55;100.00
48668;BME280;34453;52.198;5.004;2023-04-03T05:08:58;103341.38;;;2.48;100.00
48668;BME280;34453;52.198;5.004;2023-04-03T05:11:23;103349.09;;;2.52;100.00
48668;BME280;34453;52.198;5.004;2023-04-03T05:13:49;103352.50;;;2.54;100.00
48668;BME280;34453;52.198;5.004;2023-04-03T05:16:14;103360.34;;;2.49;100.00
48668;BME280;34453;52.198;5.004;2023-04-03T05:18:40;103357.75;;;2.47;100.00
48668;BME280;34453;52.198;5.004;2023-04-03T05:21:05;103365.44;;;2.52;100.00
48668;BME280;34453;52.198;5.004;2023-04-03T05:23:31;103362.03;;;2.50;100.00
48668;BME280;34453;52.198;5.004;2023-04-03T05:25:56;103362.13;;;2.44;100.00
48668;BME280;34453;52.198;5.004;2023-04-03T05:28:22;103371.59;;;2.43;100.00
48668;BME280;34453;52.198;5.004;2023-04-03T05:30:55;103375.03;;;2.45;100.00
48668;BME280;34453;52.198;5.004;2023-04-03T05:33:21;103368.94;;;2.48;100.00
48668;BME280;34453;52.198;5.004;2023-04-03T05:35:46;103375.03;;;2.45;100.00
48668;BME280;34453;52.198;5.004;2023-04-03T05:38:12;103385.25;;;2.52;100.00
48668;BME280;34453;52.198;5.004;2023-04-03T05:40:37;103389.63;;;2.46;100.00
48668;BME280;34453;52.198;5.004;2023-04-03T05:43:03;103392.97;;;2.53;100.00
48668;BME280;34453;52.198;5.004;2023-04-03T05:45:29;103389.59;;;2.49;100.00
48668;BME280;34453;52.198;5.004;2023-04-03T05:47:54;103392.13;;;2.51;100.00
48668;BME280;34453;52.198;5.004;2023-04-03T05:50:20;103390.28;;;2.61;100.00
48668;BME280;34453;52.198;5.004;2023-04-03T05:52:47;103387.56;;;2.67;100.00
48668;BME280;34453;52.198;5.004;2023-04-03T05:55:13;103388.53;;;2.61;100.00
48668;BME280;34453;52.198;5.004;2023-04-03T05:57:39;103379.94;;;2.61;100.00
48668;BME280;34453;52.198;5.004;2023-04-03T06:00:06;103382.44;;;2.64;100.00
48668;BME280;34453;52.198;5.004;2023-04-03T06:02:32;103391.88;;;2.66;100.00
48668;BME280;34453;52.198;5.004;2023-04-03T06:04:57;103391.91;;;2.65;100.00
48668;BME280;34453;52.198;5.004;2023-04-03T06:07:24;103393.63;;;2.66;100.00
48668;BME280;34453;52.198;5.004;2023-04-03T06:09:55;103395.25;;;2.72;100.00
48668;BME280;34453;52.198;5.004;2023-04-03T06:12:21;103391.84;;;2.68;100.00
48668;BME280;34453;52.198;5.004;2023-04-03T06:14:47;103398.69;;;2.70;100.00
48668;BME280;34453;52.198;5.004;2023-04-03T06:17:15;103395.25;;;2.70;100.00
48668;BME280;34453;52.198;5.004;2023-04-03T06:19:41;103397.69;;;2.78;100.00
48668;BME280;34453;52.198;5.004;2023-04-03T06:22:06;103398.50;;;2.81;100.00
48668;BME280;34453;52.198;5.004;2023-04-03T06:24:32;103403.50;;;2.90;100.00
48668;BME280;34453;52.198;5.004;2023-04-03T06:26:58;103403.50;;;2.90;100.00
48668;BME280;34453;52.198;5.004;2023-04-03T06:29:24;103413.63;;;3.03;100.00
48668;BME280;34453;52.198;5.004;2023-04-03T06:31:50;103409.09;;;3.14;100.00
48668;BME280;34453;52.198;5.004;2023-04-03T06:34:16;103407.38;;;3.13;100.00
48668;BME280;34453;52.198;5.004;2023-04-03T06:36:42;103408.09;;;3.21;100.00
48668;BME280;34453;52.198;5.004;2023-04-03T06:39:13;103409.66;;;3.28;100.00
48668;BME280;34453;52.198;5.004;2023-04-03T06:41:39;103411.38;;;3.29;100.00
48668;BME280;34453;52.198;5.004;2023-04-03T06:44:05;103416.38;;;3.39;100.00
48668;BME280;34453;52.198;5.004;2023-04-03T06:46:30;103421.44;;;3.45;100.00
48668;BME280;34453;52.198;5.004;2023-04-03T06:48:56;103430.75;;;3.53;100.00
48668;BME280;34453;52.198;5.004;2023-04-03T06:51:23;103429.88;;;3.53;100.00
48668;BME280;34453;52.198;5.004;2023-04-03T06:53:52;103424.50;;;3.62;100.00
48668;BME280;34453;52.198;5.004;2023-04-03T06:56:18;103430.53;;;3.63;100.00
48668;BME280;34453;52.198;5.004;2023-04-03T06:58:44;103435.56;;;3.69;100.00
48668;BME280;34453;52.198;5.004;2023-04-03T07:01:11;103425.19;;;3.70;100.00
48668;BME280;34453;52.198;5.004;2023-04-03T07:03:37;103426.72;;;3.79;100.00
48668;BME280;34453;52.198;5.004;2023-04-03T07:06:04;103437.06;;;3.81;100.00
48668;BME280;34453;52.198;5.004;2023-04-03T07:08:29;103444.00;;;3.79;100.00
48668;BME280;34453;52.198;5.004;2023-04-03T07:10:55;103440.47;;;3.83;100.00
48668;BME280;34453;52.198;5.004;2023-04-03T07:13:21;103440.16;;;3.97;100.00
48668;BME280;34453;52.198;5.004;2023-04-03T07:15:46;103451.75;;;4.18;100.00
48668;BME280;34453;52.198;5.004;2023-04-03T07:18:12;103446.66;;;4.14;100.00
48668;BME280;34453;52.198;5.004;2023-04-03T07:20:38;103446.06;;;4.39;100.00
48668;BME280;34453;52.198;5.004;2023-04-03T07:23:04;103450.53;;;4.34;100.00
48668;BME280;34453;52.198;5.004;2023-04-03T07:25:30;103447.16;;;4.29;100.00
48668;BME280;34453;52.198;5.004;2023-04-03T07:27:57;103452.06;;;4.41;100.00
48668;BME280;34453;52.198;5.004;2023-04-03T07:30:22;103447.34;;;4.59;100.00
48668;BME280;34453;52.198;5.004;2023-04-03T07:32:48;103449.16;;;4.53;100.00
48668;BME280;34453;52.198;5.004;2023-04-03T07:35:13;103452.47;;;4.60;100.00
48668;BME280;34453;52.198;5.004;2023-04-03T07:37:39;103456.50;;;4.72;100.00
48668;BME280;34453;52.198;5.004;2023-04-03T07:40:06;103451.06;;;4.81;100.00
48668;BME280;34453;52.198;5.004;2023-04-03T07:42:32;103452.75;;;4.82;100.00
48668;BME280;34453;52.198;5.004;2023-04-03T07:44:59;103454.13;;;4.97;100.00
48668;BME280;34453;52.198;5.004;2023-04-03T07:47:25;103445.13;;;5.09;100.00
48668;BME280;34453;52.198;5.004;2023-04-03T07:49:51;103455.31;;;5.18;100.00
48668;BME280;34453;52.198;5.004;2023-04-03T07:52:16;103460.22;;;5.27;100.00
48668;BME280;34453;52.198;5.004;2023-04-03T07:54:42;103458.22;;;5.37;100.00
48668;BME280;34453;52.198;5.004;2023-04-03T07:57:07;103453.16;;;5.32;100.00
48668;BME280;34453;52.198;5.004;2023-04-03T07:59:33;103462.47;;;5.39;100.00
48668;BME280;34453;52.198;5.004;2023-04-03T08:01:58;103458.88;;;5.45;100.00
48668;BME280;34453;52.198;5.004;2023-04-03T08:04:24;103463.66;;;5.59;100.00
48668;BME280;34453;52.198;5.004;2023-04-03T08:06:51;103468.56;;;5.68;100.00
48668;BME280;34453;52.198;5.004;2023-04-03T08:09:16;103470.91;;;5.77;100.00
48668;BME280;34453;52.198;5.004;2023-04-03T08:11:42;103460.22;;;5.87;100.00
48668;BME280;34453;52.198;5.004;2023-04-03T08:14:07;103469.34;;;6.01;100.00
48668;BME280;34453;52.198;5.004;2023-04-03T08:16:33;103469.34;;;6.01;100.00
48668;BME280;34453;52.198;5.004;2023-04-03T08:18:58;103466.53;;;6.09;100.00
48668;BME280;34453;52.198;5.004;2023-04-03T08:21:24;103481.53;;;6.28;100.00
48668;BME280;34453;52.198;5.004;2023-04-03T08:23:50;103484.75;;;6.36;100.00
48668;BME280;34453;52.198;5.004;2023-04-03T08:26:19;103472.63;;;6.35;100.00
48668;BME280;34453;52.198;5.004;2023-04-03T08:28:45;103475.09;;;6.39;100.00
48668;BME280;34453;52.198;5.004;2023-04-03T08:31:13;103475.88;;;6.41;100.00
48668;BME280;34453;52.198;5.004;2023-04-03T08:33:40;103466.81;;;6.53;100.00
48668;BME280;34453;52.198;5.004;2023-04-03T08:36:07;103474.94;;;6.71;100.00
48668;BME280;34453;52.198;5.004;2023-04-03T08:38:33;103477.28;;;6.78;100.00
48668;BME280;34453;52.198;5.004;2023-04-03T08:41:20;103481.00;;;6.96;100.00
48668;BME280;34453;52.198;5.004;2023-04-03T08:46:35;103490.66;;;7.18;100.00
48668;BME280;34453;52.198;5.004;2023-04-03T08:49:06;103476.97;;;7.13;100.00
48668;BME280;34453;52.198;5.004;2023-04-03T08:51:36;103483.63;;;7.20;100.00
48668;BME280;34453;52.198;5.004;2023-04-03T08:54:06;103474.72;;;7.27;100.00
48668;BME280;34453;52.198;5.004;2023-04-03T08:56:38;103480.31;;;7.40;100.00
48668;BME280;34453;52.198;5.004;2023-04-03T08:59:10;103473.22;;;7.45;100.00
48668;BME280;34453;52.198;5.004;2023-04-03T09:01:38;103490.09;;;7.58;100.00
48668;BME280;34453;52.198;5.004;2023-04-03T09:04:13;103484.34;;;7.72;100.00
48668;BME280;34453;52.198;5.004;2023-04-03T09:06:42;103478.13;;;7.76;100.00
48668;BME280;34453;52.198;5.004;2023-04-03T09:09:40;103473.34;;;7.87;100.00
48668;BME280;34453;52.198;5.004;2023-04-03T09:12:20;103472.91;;;7.76;100.00
48668;BME280;34453;52.198;5.004;2023-04-03T09:15:10;103476.75;;;7.89;100.00
48668;BME280;34453;52.198;5.004;2023-04-03T09:22:50;103470.38;;;8.19;100.00
48668;BME280;34453;52.198;5.004;2023-04-03T09:27:43;103467.34;;;8.52;100.00
48668;BME280;34453;52.198;5.004;2023-04-03T09:30:16;103474.13;;;8.56;100.00
48668;BME280;34453;52.198;5.004;2023-04-03T09:32:44;103463.75;;;8.54;100.00
48668;BME280;34453;52.198;5.004;2023-04-03T09:35:16;103459.19;;;8.59;100.00
48668;BME280;34453;52.198;5.004;2023-04-03T09:37:45;103469.97;;;8.72;100.00
48668;BME280;34453;52.198;5.004;2023-04-03T09:40:32;103468.34;;;8.90;100.00
48668;BME280;34453;52.198;5.004;2023-04-03T09:43:23;103459.47;;;8.94;100.00
48668;BME280;34453;52.198;5.004;2023-04-03T09:45:51;103457.50;;;8.99;100.00
48668;BME280;34453;52.198;5.004;2023-04-03T09:48:22;103444.97;;;9.26;100.00
48668;BME280;34453;52.198;5.004;2023-04-03T09:53:46;103446.69;;;9.27;100.00
48668;BME280;34453;52.198;5.004;2023-04-03T10:01:38;103434.38;;;9.86;100.00
48668;BME280;34453;52.198;5.004;2023-04-03T10:06:45;103432.53;;;9.88;100.00
48668;BME280;34453;52.198;5.004;2023-04-03T10:09:27;103419.84;;;9.81;100.00
48668;BME280;34453;52.198;5.004;2023-04-03T10:14:31;103410.81;;;10.05;100.00
48668;BME280;34453;52.198;5.004;2023-04-03T10:17:41;103406.03;;;9.77;100.00
48668;BME280;34453;52.198;5.004;2023-04-03T10:20:26;103413.06;;;9.77;100.00
48668;BME280;34453;52.198;5.004;2023-04-03T10:31:33;103403.53;;;10.29;100.00
48668;BME280;34453;52.198;5.004;2023-04-03T10:34:28;103390.19;;;10.16;100.00
48668;BME280;34453;52.198;5.004;2023-04-03T10:42:56;103396.75;;;10.25;97.32
48668;BME280;34453;52.198;5.004;2023-04-03T10:48:16;103400.66;;;10.51;92.84
48668;BME280;34453;52.198;5.004;2023-04-03T10:54:08;103383.66;;;10.60;98.43
48668;BME280;34453;52.198;5.004;2023-04-03T10:56:53;103381.66;;;10.65;97.42
48668;BME280;34453;52.198;5.004;2023-04-03T11:02:23;103387.66;;;10.67;96.21
48668;BME280;34453;52.198;5.004;2023-04-03T11:04:52;103391.19;;;10.49;90.68
48668;BME280;34453;52.198;5.004;2023-04-03T11:07:22;103379.91;;;10.48;97.78
48668;BME280;34453;52.198;5.004;2023-04-03T11:09:53;103388.81;;;10.95;94.13
48668;BME280;34453;52.198;5.004;2023-04-03T11:12:43;103384.66;;;10.91;79.81
48668;BME280;34453;52.198;5.004;2023-04-03T11:15:17;103389.13;;;10.89;86.57
48668;BME280;34453;52.198;5.004;2023-04-03T11:18:11;103384.63;;;11.08;80.66
48668;BME280;34453;52.198;5.004;2023-04-03T11:20:43;103382.06;;;11.07;79.67
48668;BME280;34453;52.198;5.004;2023-04-03T11:23:44;103384.81;;;11.53;86.06
48668;BME280;34453;52.198;5.004;2023-04-03T11:26:16;103379.97;;;11.29;76.12
48668;BME280;34453;52.198;5.004;2023-04-03T11:28:43;103381.88;;;11.43;83.73
48668;BME280;34453;52.198;5.004;2023-04-03T11:36:30;103371.59;;;11.70;81.62
48668;BME280;34453;52.198;5.004;2023-04-03T11:39:02;103359.06;;;11.91;81.18
48668;BME280;34453;52.198;5.004;2023-04-03T11:41:33;103366.16;;;11.73;72.24
48668;BME280;34453;52.198;5.004;2023-04-03T11:44:33;103361.41;;;11.80;80.97
48668;BME280;34453;52.198;5.004;2023-04-03T11:46:58;103360.09;;;11.89;77.55
48668;BME280;34453;52.198;5.004;2023-04-03T11:49:52;103365.34;;;12.19;90.66
48668;BME280;34453;52.198;5.004;2023-04-03T12:13:42;103330.88;;;12.25;78.26
48668;BME280;34453;52.198;5.004;2023-04-03T12:24:30;103292.78;;;12.75;89.84
48668;BME280;34453;52.198;5.004;2023-04-03T12:45:27;103284.47;;;13.10;74.31
48668;BME280;34453;52.198;5.004;2023-04-03T12:47:54;103278.47;;;13.08;79.39
48668;BME280;34453;52.198;5.004;2023-04-03T12:50:28;103270.81;;;13.18;82.92
48668;BME280;34453;52.198;5.004;2023-04-03T12:53:12;103280.16;;;13.09;78.95
48668;BME280;34453;52.198;5.004;2023-04-03T12:55:38;103276.91;;;12.91;80.13
48668;BME280;34453;52.198;5.004;2023-04-03T12:58:36;103270.94;;;13.16;77.44
48668;BME280;34453;52.198;5.004;2023-04-03T13:01:11;103266.84;;;13.39;74.98
48668;BME280;34453;52.198;5.004;2023-04-03T13:03:39;103262.63;;;13.37;72.32
48668;BME280;34453;52.198;5.004;2023-04-03T13:06:05;103252.59;;;13.29;74.40
48668;BME280;34453;52.198;5.004;2023-04-03T13:08:31;103254.13;;;13.46;84.63
48668;BME280;34453;52.198;5.004;2023-04-03T13:11:10;103263.25;;;13.40;80.56
48668;BME280;34453;52.198;5.004;2023-04-03T13:13:36;103259.34;;;13.33;75.84
48668;BME280;34453;52.198;5.004;2023-04-03T13:16:11;103264.97;;;13.27;74.95
48668;BME280;34453;52.198;5.004;2023-04-03T13:18:37;103257.59;;;13.19;76.21
48668;BME280;34453;52.198;5.004;2023-04-03T13:21:15;103260.13;;;13.48;78.48
48668;BME280;34453;52.198;5.004;2023-04-03T13:23:45;103251.53;;;13.59;73.99
48668;BME280;34453;52.198;5.004;2023-04-03T13:26:12;103249.72;;;13.19;79.52
48668;BME280;34453;52.198;5.004;2023-04-03T13:28:41;103245.72;;;13.26;83.18
48668;BME280;34453;52.198;5.004;2023-04-03T13:34:05;103252.47;;;13.58;84.10
48668;BME280;34453;52.198;5.004;2023-04-03T13:42:01;103244.13;;;14.17;65.51
48668;BME280;34453;52.198;5.004;2023-04-03T13:44:35;103236.81;;;14.20;75.91
48668;BME280;34453;52.198;5.004;2023-04-03T13:47:20;103235.59;;;13.87;73.91
48668;BME280;34453;52.198;5.004;2023-04-03T13:50:03;103230.31;;;13.87;75.56
48668;BME280;34453;52.198;5.004;2023-04-03T13:52:31;103235.03;;;13.82;78.63
48668;BME280;34453;52.198;5.004;2023-04-03T14:05:47;103224.81;;;14.55;81.76
48668;BME280;34453;52.198;5.004;2023-04-03T14:08:12;103220.63;;;14.26;80.73
48668;BME280;34453;52.198;5.004;2023-04-03T14:10:38;103224.97;;;14.51;80.73
48668;BME280;34453;52.198;5.004;2023-04-03T14:13:04;103215.09;;;14.42;78.19
48668;BME280;34453;52.198;5.004;2023-04-03T14:15:31;103212.69;;;14.39;79.90
48668;BME280;34453;52.198;5.004;2023-04-03T14:17:57;103212.19;;;13.57;81.24
48668;BME280;34453;52.198;5.004;2023-04-03T14:20:25;103217.69;;;13.80;76.44
48668;BME280;34453;52.198;5.004;2023-04-03T14:22:51;103215.34;;;14.14;73.39
48668;BME280;34453;52.198;5.004;2023-04-03T14:25:17;103207.94;;;14.31;80.40
48668;BME280;34453;52.198;5.004;2023-04-03T14:27:46;103204.78;;;14.39;80.28
48668;BME280;34453;52.198;5.004;2023-04-03T14:30:26;103202.66;;;14.44;71.50
48668;BME280;34453;52.198;5.004;2023-04-03T14:32:52;103196.06;;;14.76;79.25
48668;BME280;34453;52.198;5.004;2023-04-03T14:35:18;103194.34;;;14.50;72.02
48668;BME280;34453;52.198;5.004;2023-04-03T14:37:44;103193.63;;;14.85;82.10
48668;BME280;34453;52.198;5.004;2023-04-03T14:40:15;103192.00;;;13.83;77.34
48668;BME280;34453;52.198;5.004;2023-04-03T14:42:40;103191.19;;;13.83;77.32
48668;BME280;34453;52.198;5.004;2023-04-03T14:45:09;103195.56;;;13.57;77.75
48668;BME280;34453;52.198;5.004;2023-04-03T14:47:41;103186.28;;;13.51;78.63
48668;BME280;34453;52.198;5.004;2023-04-03T14:50:11;103184.75;;;13.61;88.57
48668;BME280;34453;52.198;5.004;2023-04-03T14:52:39;103191.78;;;13.48;81.37
48668;BME280;34453;52.198;5.004;2023-04-03T14:55:06;103194.47;;;13.34;84.83
48668;BME280;34453;52.198;5.004;2023-04-03T14:57:32;103185.06;;;13.57;85.91
48668;BME280;34453;52.198;5.004;2023-04-03T14:59:58;103183.91;;;13.61;80.69
48668;BME280;34453;52.198;5.004;2023-04-03T15:02:33;103193.69;;;13.84;80.35